createdAt,value
2019-04-16T00:02:24.863Z,7.53
2019-04-16T00:05:09.828Z,6.27
2019-04-16T00:07:47.105Z,8.17
2019-04-16T00:10:34.605Z,6.97
2019-04-16T00:13:13.975Z,7.80
2019-04-16T00:15:44.387Z,8.20
2019-04-16T00:18:18.522Z,7.23
2019-04-16T00:21:16.599Z,8.03
2019-04-16T00:24:18.213Z,6.70
2019-04-16T00:26:45.367Z,4.70
2019-04-16T00:29:14.966Z,7.33
2019-04-16T00:31:47.725Z,6.90
2019-04-16T00:34:18.570Z,7.10
2019-04-16T00:36:50.321Z,8.07
2019-04-16T00:39:24.609Z,5.20
2019-04-16T00:41:51.945Z,8.10
2019-04-16T00:44:23.022Z,6.17
2019-04-16T00:46:53.285Z,7.60
2019-04-16T00:49:26.297Z,5.87
2019-04-16T00:51:55.123Z,8.33
2019-04-16T00:54:24.418Z,5.30
2019-04-16T00:56:53.747Z,7.20
2019-04-16T00:59:24.118Z,7.17
2019-04-16T01:01:55.338Z,7.30
2019-04-16T01:04:25.173Z,7.27
2019-04-16T01:06:56.462Z,8.07
2019-04-16T01:09:25.862Z,7.40
2019-04-16T01:11:56.233Z,7.00
2019-04-16T01:14:26.770Z,6.83
2019-04-16T01:16:57.537Z,5.87
2019-04-16T01:19:26.828Z,7.30
2019-04-16T01:21:56.082Z,6.80
2019-04-16T01:24:25.712Z,6.77
2019-04-16T01:26:57.771Z,7.67
2019-04-16T01:29:27.764Z,6.87
2019-04-16T01:32:15.597Z,7.23
2019-04-16T01:35:06.532Z,7.13
2019-04-16T01:37:43.515Z,5.97
2019-04-16T01:40:18.388Z,7.70
2019-04-16T01:42:49.057Z,6.50
2019-04-16T01:45:18.382Z,5.93
2019-04-16T01:47:48.008Z,8.33
2019-04-16T01:50:17.366Z,7.00
2019-04-16T01:52:50.464Z,6.37
2019-04-16T01:55:19.977Z,7.10
2019-04-16T01:57:49.243Z,4.60
2019-04-16T02:00:18.906Z,6.77
2019-04-16T02:02:48.573Z,4.90
2019-04-16T02:05:23.153Z,7.90
2019-04-16T02:07:53.604Z,7.13
2019-04-16T02:10:23.990Z,7.37
2019-04-16T02:12:53.731Z,6.17
2019-04-16T02:15:23.088Z,7.83
2019-04-16T02:17:52.408Z,6.73
2019-04-16T02:20:21.663Z,6.83
2019-04-16T02:22:50.986Z,8.10
2019-04-16T02:25:20.629Z,7.10
2019-04-16T02:27:49.915Z,7.10
2019-04-16T02:30:19.213Z,5.43
2019-04-16T02:32:49.314Z,7.87
2019-04-16T02:35:20.371Z,7.47
2019-04-16T02:37:49.991Z,6.37
2019-04-16T02:40:20.295Z,5.73
2019-04-16T02:42:49.551Z,7.70
2019-04-16T02:45:22.525Z,6.40
2019-04-16T02:47:49.802Z,7.87
2019-04-16T02:50:30.614Z,6.90
2019-04-16T02:53:14.789Z,5.30
2019-04-16T02:55:57.255Z,7.30
2019-04-16T02:58:34.321Z,7.37
2019-04-16T03:01:34.119Z,7.60
2019-04-16T03:04:07.651Z,6.90
2019-04-16T03:06:37.196Z,7.53
2019-04-16T03:09:09.199Z,5.43
2019-04-16T03:11:38.536Z,6.60
2019-04-16T03:14:07.861Z,6.07
2019-04-16T03:16:45.419Z,7.20
2019-04-16T03:19:20.270Z,7.80
2019-04-16T03:21:50.012Z,6.03
2019-04-16T03:24:20.965Z,7.53
2019-04-16T03:26:51.261Z,7.30
2019-04-16T03:29:23.521Z,5.17
2019-04-16T03:31:58.343Z,7.90
2019-04-16T03:34:24.971Z,7.47
2019-04-16T03:36:58.676Z,8.47
2019-04-16T03:39:28.426Z,7.70
2019-04-16T03:41:58.071Z,5.40
2019-04-16T03:44:27.427Z,6.00
2019-04-16T03:46:58.194Z,7.97
2019-04-16T03:49:28.599Z,7.67
2019-04-16T03:51:59.600Z,5.80
2019-04-16T03:54:29.346Z,7.63
2019-04-16T03:57:01.886Z,5.40
2019-04-16T03:59:30.627Z,7.60
2019-04-16T04:02:00.234Z,7.23
2019-04-16T04:04:30.497Z,9.10
2019-04-16T04:07:00.172Z,6.92
2019-04-16T04:09:29.774Z,8.00
2019-04-16T04:12:01.459Z,8.10
2019-04-16T04:14:31.788Z,6.43
2019-04-16T04:17:06.570Z,9.67
2019-04-16T04:19:34.136Z,8.00
2019-04-16T04:22:03.468Z,7.57
2019-04-16T04:24:33.034Z,9.37
2019-04-16T04:27:04.127Z,5.87
2019-04-16T04:29:33.803Z,9.60
2019-04-16T04:32:04.716Z,6.50
2019-04-16T04:34:34.770Z,9.13
2019-04-16T04:37:05.678Z,7.67
2019-04-16T04:39:35.219Z,8.00
2019-04-16T04:42:04.582Z,5.90
2019-04-16T04:44:36.928Z,7.37
2019-04-16T04:47:05.284Z,5.73
2019-04-16T04:49:35.081Z,8.10
2019-04-16T04:52:04.451Z,8.73
2019-04-16T04:54:34.642Z,8.50
2019-04-16T04:57:04.990Z,8.07
2019-04-16T04:59:36.867Z,6.03
2019-04-16T05:02:07.565Z,7.90
2019-04-16T05:05:02.799Z,7.20
2019-04-16T05:07:35.143Z,8.53
2019-04-16T05:10:07.554Z,4.50
2019-04-16T05:12:35.659Z,7.63
2019-04-16T05:15:06.891Z,8.83
2019-04-16T05:17:38.555Z,6.30
2019-04-16T05:20:08.875Z,6.10
2019-04-16T05:22:38.173Z,6.40
2019-04-16T05:25:07.801Z,4.50
2019-04-16T05:27:40.512Z,6.27
2019-04-16T05:30:09.329Z,6.75
2019-04-16T05:32:38.648Z,6.60
2019-04-16T05:35:11.990Z,6.05
2019-04-16T05:37:42.912Z,6.07
2019-04-16T05:40:12.345Z,7.10
2019-04-16T05:42:41.689Z,6.17
2019-04-16T05:45:12.669Z,8.33
2019-04-16T05:47:42.824Z,5.87
2019-04-16T05:50:12.417Z,8.50
2019-04-16T05:52:41.722Z,8.20
2019-04-16T05:55:32.163Z,5.87
2019-04-16T05:58:03.604Z,6.43
2019-04-16T06:00:41.747Z,6.10
2019-04-16T06:03:11.282Z,8.70
2019-04-16T06:05:41.680Z,5.10
2019-04-16T06:08:11.690Z,8.17
2019-04-16T06:10:41.318Z,5.90
2019-04-16T06:13:44.403Z,7.90
2019-04-16T06:16:37.361Z,7.80
2019-04-16T06:19:31.583Z,7.80
2019-04-16T06:22:06.298Z,6.10
2019-04-16T06:24:55.996Z,6.57
2019-04-16T06:27:40.718Z,7.07
2019-04-16T06:30:37.886Z,8.47
2019-04-16T06:33:41.619Z,8.70
2019-04-16T06:36:28.777Z,6.30
2019-04-16T06:39:10.665Z,8.30
2019-04-16T06:42:06.946Z,6.23
2019-04-16T06:44:49.172Z,6.77
2019-04-16T06:47:46.976Z,8.00
2019-04-16T06:50:47.533Z,7.27
2019-04-16T06:53:30.799Z,9.20
2019-04-16T06:56:37.283Z,6.47
2019-04-16T06:59:17.277Z,5.73
2019-04-16T07:02:12.271Z,6.37
2019-04-16T07:04:58.347Z,7.03
2019-04-16T07:07:50.466Z,6.47
2019-04-16T07:10:25.429Z,7.53
2019-04-16T07:12:55.677Z,8.00
2019-04-16T07:15:28.194Z,6.57
2019-04-16T07:17:56.626Z,6.60
2019-04-16T07:20:27.386Z,8.53
2019-04-16T07:22:56.660Z,9.33
2019-04-16T07:25:28.855Z,6.67
2019-04-16T07:28:06.285Z,6.33
2019-04-16T07:30:43.074Z,8.00
2019-04-16T07:33:21.875Z,7.17
2019-04-16T07:36:13.165Z,8.13
2019-04-16T07:39:05.066Z,6.60
2019-04-16T07:42:12.851Z,6.60
2019-04-16T07:44:58.327Z,7.67
2019-04-16T07:48:06.255Z,7.53
2019-04-16T07:50:53.195Z,8.97
2019-04-16T07:53:57.124Z,8.57
2019-04-16T07:56:27.317Z,8.90
2019-04-16T07:59:00.217Z,9.70
2019-04-16T08:01:28.401Z,7.73
2019-04-16T08:04:01.368Z,8.07
2019-04-16T08:06:30.342Z,7.13
2019-04-16T08:09:05.657Z,9.03
2019-04-16T08:11:34.905Z,6.93
2019-04-16T08:14:08.913Z,8.17
2019-04-16T08:16:46.680Z,8.90
2019-04-16T08:19:06.389Z,7.27
2019-04-16T08:21:36.046Z,7.77
2019-04-16T08:24:12.151Z,6.80
2019-04-16T08:26:45.061Z,9.20
2019-04-16T08:29:15.004Z,8.10
2019-04-16T08:31:46.751Z,7.10
2019-04-16T08:34:18.136Z,7.10
2019-04-16T08:36:47.513Z,8.30
2019-04-16T08:39:16.848Z,7.67
2019-04-16T08:41:46.480Z,8.57
2019-04-16T08:44:16.200Z,7.67
2019-04-16T08:46:45.957Z,6.73
2019-04-16T08:49:15.656Z,7.80
2019-04-16T08:51:45.278Z,8.63
2019-04-16T08:54:18.175Z,7.43
2019-04-16T08:56:46.968Z,10.20
2019-04-16T08:59:16.992Z,8.03
2019-04-16T09:01:47.672Z,8.47
2019-04-16T09:04:21.217Z,5.60
2019-04-16T09:06:50.537Z,8.40
2019-04-16T09:09:26.437Z,7.97
2019-04-16T09:12:01.983Z,8.87
2019-04-16T09:14:35.908Z,10.17
2019-04-16T09:17:24.458Z,7.60
2019-04-16T09:20:01.105Z,8.33
2019-04-16T09:22:29.341Z,9.40
2019-04-16T09:25:13.870Z,7.93
2019-04-16T09:27:45.204Z,8.47
2019-04-16T09:30:35.666Z,9.97
2019-04-16T09:33:22.228Z,6.70
2019-04-16T09:36:09.625Z,7.43
2019-04-16T09:39:02.265Z,9.10
2019-04-16T09:41:34.326Z,8.70
2019-04-16T09:44:03.633Z,9.97
2019-04-16T09:46:50.300Z,8.40
2019-04-16T09:49:05.173Z,8.10
2019-04-16T09:51:35.665Z,10.07
2019-04-16T09:54:06.722Z,9.10
2019-04-16T09:56:37.206Z,8.70
2019-04-16T09:59:28.573Z,10.40
2019-04-16T10:02:05.177Z,9.60
2019-04-16T10:04:34.839Z,8.23
2019-04-16T10:07:04.805Z,6.73
2019-04-16T10:09:35.408Z,9.17
2019-04-16T10:12:07.952Z,10.33
2019-04-16T10:14:37.598Z,11.30
2019-04-16T10:17:08.672Z,7.60
2019-04-16T10:19:43.011Z,6.70
2019-04-16T10:22:09.266Z,10.57
2019-04-16T10:25:01.557Z,10.90
2019-04-16T10:27:36.442Z,9.40
2019-04-16T10:30:26.274Z,10.67
2019-04-16T10:32:55.521Z,9.80
2019-04-16T10:35:25.414Z,10.90
2019-04-16T10:37:59.530Z,9.43
2019-04-16T10:40:42.703Z,10.47
2019-04-16T10:43:44.520Z,11.13
2019-04-16T10:46:22.955Z,10.67
2019-04-16T10:49:11.199Z,11.10
2019-04-16T10:52:09.495Z,9.53
2019-04-16T10:54:53.528Z,10.20
2019-04-16T10:57:54.183Z,7.67
2019-04-16T11:00:33.046Z,8.43
2019-04-16T11:03:21.270Z,11.07
2019-04-16T11:06:13.779Z,8.43
2019-04-16T11:08:43.407Z,9.90
2019-04-16T11:11:14.225Z,11.30
2019-04-16T11:13:58.917Z,11.87
2019-04-16T11:16:19.497Z,11.70
2019-04-16T11:18:48.902Z,9.93
2019-04-16T11:21:19.859Z,11.90
2019-04-16T11:23:50.715Z,11.60
2019-04-16T11:26:22.059Z,11.33
2019-04-16T11:28:52.925Z,8.57
2019-04-16T11:31:23.110Z,8.03
2019-04-16T11:33:54.247Z,12.30
2019-04-16T11:36:23.848Z,10.03
2019-04-16T11:38:53.139Z,8.37
2019-04-16T11:41:22.386Z,11.27
2019-04-16T11:43:51.658Z,10.97
2019-04-16T11:46:22.723Z,12.80
2019-04-16T11:48:51.985Z,12.83
2019-04-16T11:51:21.290Z,13.13
2019-04-16T11:53:50.982Z,11.43
2019-04-16T11:56:22.531Z,12.80
2019-04-16T11:58:51.576Z,14.37
2019-04-16T12:01:50.494Z,12.40
2019-04-16T12:04:27.710Z,10.40
2019-04-16T12:07:31.675Z,12.30
2019-04-16T12:10:20.107Z,13.60
2019-04-16T12:13:09.781Z,12.97
2019-04-16T12:16:02.604Z,13.93
2019-04-16T12:18:58.075Z,13.30
2019-04-16T12:21:36.120Z,13.47
2019-04-16T12:24:23.014Z,12.80
2019-04-16T12:27:09.754Z,12.80
2019-04-16T12:30:17.165Z,13.90
2019-04-16T12:33:14.605Z,13.23
2019-04-16T12:36:14.592Z,14.00
2019-04-16T12:38:51.543Z,13.63
2019-04-16T12:41:55.372Z,14.53
2019-04-16T12:44:44.717Z,14.00
2019-04-16T12:47:28.751Z,13.43
2019-04-16T12:50:17.501Z,13.73
2019-04-16T12:53:14.745Z,13.23
2019-04-16T12:56:15.643Z,13.83
2019-04-16T12:59:02.079Z,13.20
2019-04-16T13:01:50.532Z,13.83
2019-04-16T13:04:40.406Z,12.33
2019-04-16T13:07:31.786Z,13.40
2019-04-16T13:10:15.497Z,15.13
2019-04-16T13:13:05.463Z,13.00
2019-04-16T13:16:03.919Z,15.80
2019-04-16T13:19:00.531Z,12.67
2019-04-16T13:21:46.638Z,12.63
2019-04-16T13:24:22.703Z,14.80
2019-04-16T13:27:27.738Z,13.13
2019-04-16T13:30:01.305Z,13.40
2019-04-16T13:32:28.392Z,11.93
2019-04-16T13:34:58.845Z,14.90
2019-04-16T13:37:30.496Z,15.97
2019-04-16T13:40:05.473Z,14.07
2019-04-16T13:42:36.246Z,15.43
2019-04-16T13:45:27.042Z,16.17
2019-04-16T13:47:56.657Z,16.30
2019-04-16T13:50:35.870Z,15.40
2019-04-16T13:53:22.993Z,15.50
2019-04-16T13:56:17.446Z,14.80
2019-04-16T13:59:00.592Z,15.57
2019-04-16T14:01:34.182Z,15.23
2019-04-16T14:04:03.911Z,14.30
2019-04-16T14:06:34.339Z,16.13
2019-04-16T14:09:06.351Z,15.57
2019-04-16T14:11:36.260Z,17.17
2019-04-16T14:14:07.991Z,14.73
2019-04-16T14:16:36.781Z,13.77
2019-04-16T14:19:07.622Z,16.30
2019-04-16T14:21:37.044Z,15.93
2019-04-16T14:24:11.581Z,16.20
2019-04-16T14:26:39.204Z,13.70
2019-04-16T14:29:08.629Z,15.23
2019-04-16T14:31:37.968Z,14.90
2019-04-16T14:34:33.521Z,17.83
2019-04-16T14:37:02.955Z,17.50
2019-04-16T14:39:38.989Z,14.03
2019-04-16T14:42:08.567Z,14.27
2019-04-16T14:44:47.395Z,16.60
2019-04-16T14:47:17.366Z,16.40
2019-04-16T14:49:47.799Z,15.17
2019-04-16T14:52:18.243Z,15.30
2019-04-16T14:54:54.691Z,14.87
2019-04-16T14:57:24.193Z,15.43
2019-04-16T15:00:30.590Z,15.87
2019-04-16T15:03:08.059Z,16.43
2019-04-16T15:06:02.292Z,15.97
2019-04-16T15:08:38.736Z,16.17
2019-04-16T15:11:25.944Z,17.87
2019-04-16T15:14:17.964Z,16.37
2019-04-16T15:17:26.279Z,12.33
2019-04-16T15:20:20.102Z,16.70
2019-04-16T15:23:07.335Z,14.97
2019-04-16T15:25:51.463Z,14.17
2019-04-16T15:28:29.413Z,17.73
2019-04-16T15:31:07.870Z,14.80
2019-04-16T15:33:52.871Z,16.20
2019-04-16T15:36:30.479Z,15.07
2019-04-16T15:39:19.068Z,16.70
2019-04-16T15:42:17.446Z,16.93
2019-04-16T15:45:08.465Z,17.40
2019-04-16T15:47:54.623Z,17.40
2019-04-16T15:50:47.758Z,15.90
2019-04-16T15:53:36.763Z,17.90
2019-04-16T15:56:21.233Z,17.90
2019-04-16T15:59:01.700Z,17.17
2019-04-16T16:01:51.150Z,17.70
2019-04-16T16:04:41.004Z,17.10
2019-04-16T16:07:23.983Z,16.67
2019-04-16T16:10:16.973Z,18.00
2019-04-16T16:12:50.895Z,17.70
2019-04-16T16:15:21.502Z,17.83
2019-04-16T16:17:53.588Z,17.10
2019-04-16T16:20:24.206Z,18.77
2019-04-16T16:22:58.158Z,17.60
2019-04-16T16:25:26.792Z,18.70
2019-04-16T16:27:57.535Z,15.77
2019-04-16T16:30:28.768Z,18.33
2019-04-16T16:32:58.559Z,17.93
2019-04-16T16:35:29.544Z,16.70
2019-04-16T16:37:59.270Z,16.60
2019-04-16T16:40:28.593Z,14.33
2019-04-16T16:42:57.880Z,19.73
2019-04-16T16:45:42.748Z,18.57
2019-04-16T16:48:12.683Z,18.07
2019-04-16T16:50:44.137Z,18.60
2019-04-16T16:53:21.420Z,17.90
2019-04-16T16:55:53.199Z,15.50
2019-04-16T16:58:30.635Z,18.90
2019-04-16T17:01:18.906Z,18.27
2019-04-16T17:04:11.148Z,18.63
2019-04-16T17:06:40.856Z,15.43
2019-04-16T17:09:20.935Z,16.57
2019-04-16T17:11:55.839Z,12.13
2019-04-16T17:14:25.580Z,17.30
2019-04-16T17:17:11.268Z,19.40
2019-04-16T17:19:28.693Z,19.17
2019-04-16T17:22:01.003Z,22.00
2019-04-16T17:24:30.631Z,19.00
2019-04-16T17:27:21.945Z,17.70
2019-04-16T17:29:54.829Z,17.90
2019-04-16T17:32:25.781Z,16.63
2019-04-16T17:34:57.475Z,21.33
2019-04-16T17:37:28.948Z,20.08
2019-04-16T17:40:07.031Z,19.67
2019-04-16T17:42:43.190Z,19.47
2019-04-16T17:45:35.641Z,14.40
2019-04-16T17:48:13.929Z,16.63
2019-04-16T17:51:02.558Z,17.67
2019-04-16T17:54:11.272Z,19.57
2019-04-16T17:56:59.556Z,18.27
2019-04-16T17:59:40.034Z,18.60
2019-04-16T18:02:39.087Z,19.37
2019-04-16T18:05:33.825Z,17.70
2019-04-16T18:08:42.275Z,18.13
2019-04-16T18:11:15.824Z,19.93
2019-04-16T18:14:04.671Z,17.90
2019-04-16T18:16:34.874Z,18.30
2019-04-16T18:19:26.292Z,17.90
2019-04-16T18:22:05.768Z,18.20
2019-04-16T18:25:09.586Z,18.73
2019-04-16T18:27:44.204Z,19.70
2019-04-16T18:30:33.307Z,16.47
2019-04-16T18:33:33.985Z,17.77
2019-04-16T18:36:19.135Z,20.80
2019-04-16T18:39:07.824Z,20.20
2019-04-16T18:41:46.130Z,20.30
2019-04-16T18:44:37.866Z,21.60
2019-04-16T18:47:36.325Z,20.07
2019-04-16T18:50:09.369Z,21.90
2019-04-16T18:52:40.661Z,19.43
2019-04-16T18:55:10.463Z,21.53
2019-04-16T18:57:40.106Z,16.43
2019-04-16T19:00:28.622Z,16.53
2019-04-16T19:02:59.710Z,20.47
2019-04-16T19:05:29.494Z,19.67
2019-04-16T19:07:59.804Z,18.50
2019-04-16T19:10:29.892Z,20.00
2019-04-16T19:13:02.002Z,20.67
2019-04-16T19:15:33.042Z,19.07
2019-04-16T19:18:17.211Z,19.30
2019-04-16T19:20:35.149Z,16.87
2019-04-16T19:23:04.421Z,27.23
2019-04-16T19:25:33.701Z,19.20
2019-04-16T19:28:06.604Z,22.57
2019-04-16T19:30:36.598Z,18.50
2019-04-16T19:33:06.272Z,22.20
2019-04-16T19:35:58.340Z,26.50
2019-04-16T19:38:29.757Z,23.27
2019-04-16T19:41:00.440Z,25.70
2019-04-16T19:43:34.318Z,21.90
2019-04-16T19:46:02.120Z,17.17
2019-04-16T19:48:42.819Z,19.10
2019-04-16T19:51:13.311Z,21.17
2019-04-16T19:53:44.654Z,20.70
2019-04-16T19:56:15.533Z,18.93
2019-04-16T19:58:47.054Z,19.13
2019-04-16T20:01:18.046Z,20.30
2019-04-16T20:03:47.312Z,15.90
2019-04-16T20:06:17.097Z,21.00
2019-04-16T20:08:46.715Z,19.03
2019-04-16T20:11:20.490Z,20.30
2019-04-16T20:13:49.585Z,18.67
2019-04-16T20:16:19.308Z,19.07
2019-04-16T20:18:51.085Z,20.87
2019-04-16T20:21:21.364Z,20.75
2019-04-16T20:23:51.328Z,19.37
2019-04-16T20:26:20.699Z,20.90
2019-04-16T20:28:50.079Z,22.37
2019-04-16T20:31:19.362Z,21.30
2019-04-16T20:33:50.059Z,20.07
2019-04-16T20:36:22.708Z,21.50
2019-04-16T20:38:52.241Z,21.60
2019-04-16T20:41:21.554Z,20.50
2019-04-16T20:43:51.016Z,19.10
2019-04-16T20:46:20.292Z,21.17
2019-04-16T20:49:05.742Z,18.10
2019-04-16T20:51:26.231Z,19.97
2019-04-16T20:53:54.508Z,16.37
2019-04-16T20:56:24.021Z,19.50
2019-04-16T20:58:53.953Z,20.03
2019-04-16T21:01:35.318Z,18.57
2019-04-16T21:04:04.464Z,18.37
2019-04-16T21:06:30.788Z,19.43
2019-04-16T21:09:00.397Z,18.90
2019-04-16T21:11:31.526Z,17.75
2019-04-16T21:14:02.625Z,19.23
2019-04-16T21:16:33.819Z,17.37
2019-04-16T21:19:03.796Z,17.90
2019-04-16T21:21:33.103Z,19.33
2019-04-16T21:24:06.568Z,17.80
2019-04-16T21:26:35.713Z,18.30
2019-04-16T21:29:33.128Z,18.23
2019-04-16T21:32:01.972Z,19.00
2019-04-16T21:34:37.473Z,18.90
2019-04-16T21:37:27.594Z,18.05
2019-04-16T21:39:59.032Z,19.13
2019-04-16T21:42:34.968Z,18.67
2019-04-16T21:45:05.661Z,18.00
2019-04-16T21:47:34.928Z,19.07
2019-04-16T21:50:05.925Z,18.90
2019-04-16T21:52:37.265Z,17.63
2019-04-16T21:55:06.549Z,18.10
2019-04-16T21:57:36.300Z,19.37
2019-04-16T22:00:09.126Z,17.50
2019-04-16T22:02:39.593Z,18.10
2019-04-16T22:05:11.292Z,18.40
2019-04-16T22:07:40.617Z,18.13
2019-04-16T22:10:11.637Z,18.83
2019-04-16T22:12:41.366Z,18.67
2019-04-16T22:15:10.791Z,16.60
2019-04-16T22:17:41.776Z,19.07
2019-04-16T22:20:11.035Z,17.33
2019-04-16T22:22:40.307Z,20.20
2019-04-16T22:25:09.634Z,19.03
2019-04-16T22:27:40.358Z,19.37
2019-04-16T22:30:09.753Z,19.87
2019-04-16T22:32:39.004Z,19.77
2019-04-16T22:35:09.264Z,18.85
2019-04-16T22:37:38.549Z,18.70
2019-04-16T22:40:28.635Z,19.40
2019-04-16T22:43:34.840Z,18.30
2019-04-16T22:46:23.241Z,18.53
2019-04-16T22:48:56.617Z,19.43
2019-04-16T22:51:28.223Z,20.10
2019-04-16T22:53:58.386Z,18.10
2019-04-16T22:56:50.772Z,18.17
2019-04-16T22:59:20.539Z,19.80
2019-04-16T23:01:53.230Z,18.83
2019-04-16T23:04:26.144Z,19.47
2019-04-16T23:06:54.437Z,20.30
2019-04-16T23:09:25.683Z,17.73
2019-04-16T23:11:55.843Z,19.00
2019-04-16T23:14:27.601Z,19.20
2019-04-16T23:16:58.872Z,19.43
2019-04-16T23:19:29.535Z,19.40
2019-04-16T23:21:59.059Z,19.00
2019-04-16T23:24:28.321Z,19.80
2019-04-16T23:26:57.567Z,20.57
2019-04-16T23:29:26.979Z,19.33
2019-04-16T23:31:56.328Z,19.87
2019-04-16T23:34:25.550Z,19.00
2019-04-16T23:36:54.826Z,20.60
2019-04-16T23:39:24.138Z,19.33
2019-04-16T23:41:53.795Z,18.97
2019-04-16T23:44:48.135Z,19.23
2019-04-16T23:47:29.153Z,19.83
2019-04-16T23:50:16.250Z,20.20
2019-04-16T23:53:12.056Z,22.17
2019-04-16T23:56:06.154Z,22.03
2019-04-16T23:59:01.457Z,20.73
